sensor_id;sensor_type;location;lat;lon;timestamp;pressure;altitude;pressure_sealevel;temperature;humidity
51439;BME280;38816;51.142;-0.974;2023-05-02T00:01:28;100752.53;;;7.77;100.00
51439;BME280;38816;51.142;-0.974;2023-05-02T00:03:53;100761.13;;;7.79;100.00
51439;BME280;38816;51.142;-0.974;2023-05-02T00:06:19;100758.50;;;7.78;100.00
51439;BME280;38816;51.142;-0.974;2023-05-02T00:08:44;100756.81;;;7.78;100.00
51439;BME280;38816;51.142;-0.974;2023-05-02T00:11:09;100753.50;;;7.81;100.00
51439;BME280;38816;51.142;-0.974;2023-05-02T00:13:35;100739.44;;;7.70;100.00
51439;BME280;38816;51.142;-0.974;2023-05-02T00:16:00;100740.34;;;7.70;100.00
51439;BME280;38816;51.142;-0.974;2023-05-02T00:18:26;100744.38;;;7.65;100.00
51439;BME280;38816;51.142;-0.974;2023-05-02T00:20:51;100753.75;;;7.65;100.00
51439;BME280;38816;51.142;-0.974;2023-05-02T00:23:17;100751.13;;;7.61;100.00
51439;BME280;38816;51.142;-0.974;2023-05-02T00:25:45;100753.66;;;7.61;100.00
51439;BME280;38816;51.142;-0.974;2023-05-02T00:28:10;100753.59;;;7.60;100.00
51439;BME280;38816;51.142;-0.974;2023-05-02T00:30:40;100745.59;;;7.51;100.00
51439;BME280;38816;51.142;-0.974;2023-05-02T00:33:06;100761.88;;;7.53;100.00
51439;BME280;38816;51.142;-0.974;2023-05-02T00:35:32;100762.50;;;7.47;100.00
51439;BME280;38816;51.142;-0.974;2023-05-02T00:37:58;100757.94;;;7.39;100.00
51439;BME280;38816;51.142;-0.974;2023-05-02T00:40:23;100756.00;;;7.33;100.00
51439;BME280;38816;51.142;-0.974;2023-05-02T00:42:49;100763.44;;;7.27;100.00
51439;BME280;38816;51.142;-0.974;2023-05-02T00:45:14;100757.03;;;7.16;100.00
51439;BME280;38816;51.142;-0.974;2023-05-02T00:47:40;100761.09;;;7.10;100.00
51439;BME280;38816;51.142;-0.974;2023-05-02T00:50:05;100743.56;;;6.97;100.00
51439;BME280;38816;51.142;-0.974;2023-05-02T00:52:31;100755.78;;;7.04;100.00
51439;BME280;38816;51.142;-0.974;2023-05-02T00:54:57;100758.38;;;7.06;100.00
51439;BME280;38816;51.142;-0.974;2023-05-02T00:57:22;100746.28;;;7.02;100.00
51439;BME280;38816;51.142;-0.974;2023-05-02T00:59:48;100744.69;;;7.04;100.00
51439;BME280;38816;51.142;-0.974;2023-05-02T01:02:33;100759.50;;;7.13;100.00
51439;BME280;38816;51.142;-0.974;2023-05-02T01:05:16;100757.00;;;7.14;100.00
51439;BME280;38816;51.142;-0.974;2023-05-02T01:08:15;100764.66;;;7.14;100.00
51439;BME280;38816;51.142;-0.974;2023-05-02T01:11:12;100760.31;;;7.12;100.00
51439;BME280;38816;51.142;-0.974;2023-05-02T01:13:42;100751.53;;;7.05;100.00
51439;BME280;38816;51.142;-0.974;2023-05-02T01:16:10;100750.63;;;7.03;100.00
51439;BME280;38816;51.142;-0.974;2023-05-02T01:18:37;100757.59;;;7.07;100.00
51439;BME280;38816;51.142;-0.974;2023-05-02T01:21:09;100754.91;;;7.04;100.00
51439;BME280;38816;51.142;-0.974;2023-05-02T01:23:59;100769.59;;;7.09;100.00
51439;BME280;38816;51.142;-0.974;2023-05-02T01:29:36;100765.19;;;7.05;100.00
51439;BME280;38816;51.142;-0.974;2023-05-02T01:32:03;100762.69;;;7.07;100.00
51439;BME280;38816;51.142;-0.974;2023-05-02T01:34:30;100771.47;;;7.14;100.00
51439;BME280;38816;51.142;-0.974;2023-05-02T01:36:58;100777.22;;;7.08;100.00
51439;BME280;38816;51.142;-0.974;2023-05-02T01:39:25;100766.72;;;7.02;100.00
51439;BME280;38816;51.142;-0.974;2023-05-02T01:41:54;100755.47;;;6.97;100.00
51439;BME280;38816;51.142;-0.974;2023-05-02T01:44:21;100752.09;;;6.98;100.00
51439;BME280;38816;51.142;-0.974;2023-05-02T01:46:48;100764.34;;;7.06;100.00
51439;BME280;38816;51.142;-0.974;2023-05-02T01:49:15;100758.38;;;7.06;100.00
51439;BME280;38816;51.142;-0.974;2023-05-02T01:51:46;100767.25;;;7.16;100.00
51439;BME280;38816;51.142;-0.974;2023-05-02T01:54:14;100772.28;;;7.13;100.00
51439;BME280;38816;51.142;-0.974;2023-05-02T01:56:41;100786.16;;;7.19;100.00
51439;BME280;38816;51.142;-0.974;2023-05-02T01:59:17;100774.06;;;7.15;100.00
51439;BME280;38816;51.142;-0.974;2023-05-02T02:01:43;100786.16;;;7.19;100.00
51439;BME280;38816;51.142;-0.974;2023-05-02T02:04:12;100773.19;;;7.15;100.00
51439;BME280;38816;51.142;-0.974;2023-05-02T02:06:41;100788.84;;;7.22;100.00
51439;BME280;38816;51.142;-0.974;2023-05-02T02:09:08;100782.78;;;7.20;100.00
51439;BME280;38816;51.142;-0.974;2023-05-02T02:11:46;100795.47;;;7.17;100.00
51439;BME280;38816;51.142;-0.974;2023-05-02T02:14:17;100790.00;;;7.08;100.00
51439;BME280;38816;51.142;-0.974;2023-05-02T02:16:43;100794.16;;;7.06;100.00
51439;BME280;38816;51.142;-0.974;2023-05-02T02:19:09;100811.28;;;7.07;100.00
51439;BME280;38816;51.142;-0.974;2023-05-02T02:21:38;100811.97;;;7.03;100.00
51439;BME280;38816;51.142;-0.974;2023-05-02T02:24:06;100799.03;;;7.00;100.00
51439;BME280;38816;51.142;-0.974;2023-05-02T02:26:32;100804.97;;;6.99;100.00
51439;BME280;38816;51.142;-0.974;2023-05-02T02:28:59;100804.88;;;6.97;100.00
51439;BME280;38816;51.142;-0.974;2023-05-02T02:31:33;100802.06;;;6.90;100.00
51439;BME280;38816;51.142;-0.974;2023-05-02T02:34:00;100812.50;;;6.96;100.00
51439;BME280;38816;51.142;-0.974;2023-05-02T02:36:33;100814.19;;;6.95;100.00
51439;BME280;38816;51.142;-0.974;2023-05-02T02:47:12;100808.06;;;7.13;100.00
51439;BME280;38816;51.142;-0.974;2023-05-02T02:52:52;100811.47;;;7.34;100.00
51439;BME280;38816;51.142;-0.974;2023-05-02T02:58:03;100809.66;;;7.54;100.00
51439;BME280;38816;51.142;-0.974;2023-05-02T03:00:32;100810.66;;;7.57;100.00
51439;BME280;38816;51.142;-0.974;2023-05-02T03:02:59;100799.56;;;7.57;100.00
51439;BME280;38816;51.142;-0.974;2023-05-02T03:05:24;100797.78;;;7.56;100.00
51439;BME280;38816;51.142;-0.974;2023-05-02T03:07:50;100807.16;;;7.55;100.00
51439;BME280;38816;51.142;-0.974;2023-05-02T03:10:16;100806.28;;;7.55;100.00
51439;BME280;38816;51.142;-0.974;2023-05-02T03:12:41;100802.81;;;7.53;100.00
51439;BME280;38816;51.142;-0.974;2023-05-02T03:17:52;100815.69;;;7.56;100.00
51439;BME280;38816;51.142;-0.974;2023-05-02T03:20:17;100816.50;;;7.55;100.00
51439;BME280;38816;51.142;-0.974;2023-05-02T03:22:43;100829.25;;;7.53;100.00
51439;BME280;38816;51.142;-0.974;2023-05-02T03:25:08;100820.59;;;7.50;100.00
51439;BME280;38816;51.142;-0.974;2023-05-02T03:27:34;100831.22;;;7.60;100.00
51439;BME280;38816;51.142;-0.974;2023-05-02T03:29:59;100830.59;;;7.66;100.00
51439;BME280;38816;51.142;-0.974;2023-05-02T03:32:24;100831.91;;;7.79;100.00
51439;BME280;38816;51.142;-0.974;2023-05-02T03:34:50;100847.84;;;7.94;100.00
51439;BME280;38816;51.142;-0.974;2023-05-02T03:37:16;100843.91;;;8.04;100.00
51439;BME280;38816;51.142;-0.974;2023-05-02T03:39:43;100844.13;;;8.10;100.00
51439;BME280;38816;51.142;-0.974;2023-05-02T03:42:08;100845.25;;;8.17;100.00
51439;BME280;38816;51.142;-0.974;2023-05-02T03:44:33;100863.44;;;8.24;100.00
51439;BME280;38816;51.142;-0.974;2023-05-02T03:46:59;100850.72;;;8.27;100.00
51439;BME280;38816;51.142;-0.974;2023-05-02T03:49:24;100847.47;;;8.31;100.00
51439;BME280;38816;51.142;-0.974;2023-05-02T03:51:50;100840.72;;;8.33;100.00
51439;BME280;38816;51.142;-0.974;2023-05-02T03:54:15;100855.56;;;8.42;100.00
51439;BME280;38816;51.142;-0.974;2023-05-02T03:56:40;100848.84;;;8.46;100.00
51439;BME280;38816;51.142;-0.974;2023-05-02T03:59:08;100836.84;;;8.45;100.00
51439;BME280;38816;51.142;-0.974;2023-05-02T04:01:49;100840.44;;;8.50;100.00
51439;BME280;38816;51.142;-0.974;2023-05-02T04:04:15;100841.13;;;8.44;100.00
51439;BME280;38816;51.142;-0.974;2023-05-02T04:06:40;100860.94;;;8.50;100.00
51439;BME280;38816;51.142;-0.974;2023-05-02T04:09:06;100870.47;;;8.54;100.00
51439;BME280;38816;51.142;-0.974;2023-05-02T04:11:31;100872.22;;;8.55;100.00
51439;BME280;38816;51.142;-0.974;2023-05-02T04:13:57;100868.88;;;8.56;100.00
51439;BME280;38816;51.142;-0.974;2023-05-02T04:16:22;100870.38;;;8.51;100.00
51439;BME280;38816;51.142;-0.974;2023-05-02T04:18:47;100876.31;;;8.50;100.00
51439;BME280;38816;51.142;-0.974;2023-05-02T04:21:13;100887.56;;;8.53;100.00
51439;BME280;38816;51.142;-0.974;2023-05-02T04:23:38;100883.19;;;8.51;100.00
51439;BME280;38816;51.142;-0.974;2023-05-02T04:26:04;100878.72;;;8.45;100.00
51439;BME280;38816;51.142;-0.974;2023-05-02T04:28:30;100883.25;;;8.52;100.00
51439;BME280;38816;51.142;-0.974;2023-05-02T04:30:55;100887.72;;;8.58;100.00
51439;BME280;38816;51.142;-0.974;2023-05-02T04:33:21;100880.72;;;8.54;100.00
51439;BME280;38816;51.142;-0.974;2023-05-02T04:35:47;100901.34;;;8.57;100.00
51439;BME280;38816;51.142;-0.974;2023-05-02T04:38:13;100885.81;;;8.52;100.00
51439;BME280;38816;51.142;-0.974;2023-05-02T04:40:38;100883.41;;;8.57;100.00
51439;BME280;38816;51.142;-0.974;2023-05-02T04:43:04;100885.09;;;8.56;100.00
51439;BME280;38816;51.142;-0.974;2023-05-02T04:45:29;100892.00;;;8.59;100.00
51439;BME280;38816;51.142;-0.974;2023-05-02T04:47:55;100897.13;;;8.59;100.00
51439;BME280;38816;51.142;-0.974;2023-05-02T04:50:20;100886.69;;;8.53;100.00
51439;BME280;38816;51.142;-0.974;2023-05-02T04:52:46;100891.81;;;8.53;100.00
51439;BME280;38816;51.142;-0.974;2023-05-02T04:55:11;100890.88;;;8.51;100.00
51439;BME280;38816;51.142;-0.974;2023-05-02T04:57:37;100894.66;;;8.60;100.00
51439;BME280;38816;51.142;-0.974;2023-05-02T05:00:04;100891.09;;;8.57;100.00
51439;BME280;38816;51.142;-0.974;2023-05-02T05:02:30;100912.63;;;8.62;100.00
51439;BME280;38816;51.142;-0.974;2023-05-02T05:04:55;100914.09;;;8.55;100.00
51439;BME280;38816;51.142;-0.974;2023-05-02T05:07:21;100918.59;;;8.61;100.00
51439;BME280;38816;51.142;-0.974;2023-05-02T05:09:46;100927.34;;;8.68;100.00
51439;BME280;38816;51.142;-0.974;2023-05-02T05:12:11;100929.19;;;8.72;100.00
51439;BME280;38816;51.142;-0.974;2023-05-02T05:14:37;100925.66;;;8.68;100.00
51439;BME280;38816;51.142;-0.974;2023-05-02T05:17:03;100929.06;;;8.69;100.00
51439;BME280;38816;51.142;-0.974;2023-05-02T05:19:28;100927.34;;;8.68;100.00
51439;BME280;38816;51.142;-0.974;2023-05-02T05:21:53;100925.56;;;8.65;100.00
51439;BME280;38816;51.142;-0.974;2023-05-02T05:24:19;100940.16;;;8.68;100.00
51439;BME280;38816;51.142;-0.974;2023-05-02T05:26:44;100930.44;;;8.59;100.00
51439;BME280;38816;51.142;-0.974;2023-05-02T05:29:09;100938.53;;;8.70;100.00
51439;BME280;38816;51.142;-0.974;2023-05-02T05:31:35;100938.69;;;8.74;100.00
51439;BME280;38816;51.142;-0.974;2023-05-02T05:34:01;100927.56;;;8.74;100.00
51439;BME280;38816;51.142;-0.974;2023-05-02T05:36:27;100938.91;;;8.80;100.00
51439;BME280;38816;51.142;-0.974;2023-05-02T05:38:52;100945.75;;;8.81;100.00
51439;BME280;38816;51.142;-0.974;2023-05-02T05:41:18;100931.16;;;8.79;100.00
51439;BME280;38816;51.142;-0.974;2023-05-02T05:43:43;100931.38;;;8.85;100.00
51439;BME280;38816;51.142;-0.974;2023-05-02T05:46:09;100927.09;;;8.85;100.00
51439;BME280;38816;51.142;-0.974;2023-05-02T05:48:34;100944.47;;;8.93;100.00
51439;BME280;38816;51.142;-0.974;2023-05-02T05:51:06;100951.31;;;8.94;100.00
51439;BME280;38816;51.142;-0.974;2023-05-02T05:53:32;100946.41;;;9.00;100.00
51439;BME280;38816;51.142;-0.974;2023-05-02T05:55:57;100951.75;;;9.06;100.00
51439;BME280;38816;51.142;-0.974;2023-05-02T05:58:23;100963.75;;;9.07;100.00
51439;BME280;38816;51.142;-0.974;2023-05-02T06:00:48;100962.22;;;9.12;100.00
51439;BME280;38816;51.142;-0.974;2023-05-02T06:03:14;100969.16;;;9.15;100.00
51439;BME280;38816;51.142;-0.974;2023-05-02T06:05:40;100963.34;;;9.20;100.00
51439;BME280;38816;51.142;-0.974;2023-05-02T06:08:05;100955.53;;;9.17;100.00
51439;BME280;38816;51.142;-0.974;2023-05-02T06:10:31;100959.19;;;9.24;100.00
51439;BME280;38816;51.142;-0.974;2023-05-02T06:12:56;100963.66;;;9.29;100.00
51439;BME280;38816;51.142;-0.974;2023-05-02T06:15:22;100964.84;;;9.41;100.00
51439;BME280;38816;51.142;-0.974;2023-05-02T06:17:49;100958.81;;;9.38;100.00
51439;BME280;38816;51.142;-0.974;2023-05-02T06:20:15;100959.00;;;9.45;100.00
51439;BME280;38816;51.142;-0.974;2023-05-02T06:22:40;100967.81;;;9.53;100.00
51439;BME280;38816;51.142;-0.974;2023-05-02T06:25:06;100973.97;;;9.58;100.00
51439;BME280;38816;51.142;-0.974;2023-05-02T06:27:33;100973.22;;;9.60;100.00
51439;BME280;38816;51.142;-0.974;2023-05-02T06:29:58;100977.84;;;9.72;100.00
51439;BME280;38816;51.142;-0.974;2023-05-02T06:32:24;100984.94;;;9.79;100.00
51439;BME280;38816;51.142;-0.974;2023-05-02T06:34:49;100993.03;;;9.92;100.00
51439;BME280;38816;51.142;-0.974;2023-05-02T06:37:14;100991.47;;;9.97;100.00
51439;BME280;38816;51.142;-0.974;2023-05-02T06:39:40;100987.97;;;9.95;100.00
51439;BME280;38816;51.142;-0.974;2023-05-02T06:42:05;100996.75;;;10.01;100.00
51439;BME280;38816;51.142;-0.974;2023-05-02T06:44:30;100995.78;;;9.98;100.00
51439;BME280;38816;51.142;-0.974;2023-05-02T06:46:56;101002.06;;;10.07;100.00
51439;BME280;38816;51.142;-0.974;2023-05-02T06:49:21;101014.97;;;10.09;100.00
51439;BME280;38816;51.142;-0.974;2023-05-02T06:51:47;101010.63;;;10.08;100.00
51439;BME280;38816;51.142;-0.974;2023-05-02T06:54:12;101009.72;;;10.06;100.00
51439;BME280;38816;51.142;-0.974;2023-05-02T06:56:40;101020.97;;;10.09;100.00
51439;BME280;38816;51.142;-0.974;2023-05-02T06:59:05;101018.56;;;10.14;100.00
51439;BME280;38816;51.142;-0.974;2023-05-02T07:01:30;101015.88;;;10.11;100.00
51439;BME280;38816;51.142;-0.974;2023-05-02T07:03:56;101024.63;;;10.18;100.00
51439;BME280;38816;51.142;-0.974;2023-05-02T07:06:22;101006.91;;;10.25;100.00
51439;BME280;38816;51.142;-0.974;2023-05-02T07:08:47;101006.50;;;10.40;100.00
51439;BME280;38816;51.142;-0.974;2023-05-02T07:11:13;101017.38;;;10.60;100.00
51439;BME280;38816;51.142;-0.974;2023-05-02T07:13:38;101004.50;;;10.60;100.00
51439;BME280;38816;51.142;-0.974;2023-05-02T07:16:04;101001.44;;;10.72;100.00
51439;BME280;38816;51.142;-0.974;2023-05-02T07:18:29;101020.34;;;10.75;100.00
51439;BME280;38816;51.142;-0.974;2023-05-02T07:20:55;101023.00;;;10.77;100.00
51439;BME280;38816;51.142;-0.974;2023-05-02T07:23:20;101019.84;;;10.87;100.00
51439;BME280;38816;51.142;-0.974;2023-05-02T07:25:49;101021.94;;;11.00;100.00
51439;BME280;38816;51.142;-0.974;2023-05-02T07:28:14;101010.75;;;11.00;100.00
51439;BME280;38816;51.142;-0.974;2023-05-02T07:30:39;101000.28;;;10.94;100.00
51439;BME280;38816;51.142;-0.974;2023-05-02T07:33:05;101008.00;;;10.94;100.00
51439;BME280;38816;51.142;-0.974;2023-05-02T07:35:31;101013.16;;;10.94;100.00
51439;BME280;38816;51.142;-0.974;2023-05-02T07:37:56;101018.28;;;10.94;100.00
51439;BME280;38816;51.142;-0.974;2023-05-02T07:40:22;101003.44;;;10.83;100.00
51439;BME280;38816;51.142;-0.974;2023-05-02T07:42:48;101005.13;;;10.81;100.00
51439;BME280;38816;51.142;-0.974;2023-05-02T07:45:14;101005.19;;;10.84;100.00
51439;BME280;38816;51.142;-0.974;2023-05-02T07:47:40;101009.94;;;11.01;100.00
51439;BME280;38816;51.142;-0.974;2023-05-02T07:50:06;101017.16;;;11.14;100.00
51439;BME280;38816;51.142;-0.974;2023-05-02T07:52:31;101006.94;;;11.17;100.00
51439;BME280;38816;51.142;-0.974;2023-05-02T07:54:57;101013.13;;;11.25;100.00
51439;BME280;38816;51.142;-0.974;2023-05-02T07:57:22;101006.47;;;11.32;100.00
51439;BME280;38816;51.142;-0.974;2023-05-02T07:59:48;101029.06;;;11.44;100.00
51439;BME280;38816;51.142;-0.974;2023-05-02T08:02:13;101008.44;;;11.44;100.00
51439;BME280;38816;51.142;-0.974;2023-05-02T08:04:41;101028.63;;;11.60;100.00
51439;BME280;38816;51.142;-0.974;2023-05-02T08:07:07;101025.41;;;11.69;100.00
51439;BME280;38816;51.142;-0.974;2023-05-02T08:09:32;101023.06;;;11.79;100.00
51439;BME280;38816;51.142;-0.974;2023-05-02T08:11:58;101021.78;;;11.97;100.00
51439;BME280;38816;51.142;-0.974;2023-05-02T08:14:23;101019.50;;;12.07;100.00
51439;BME280;38816;51.142;-0.974;2023-05-02T08:16:48;101021.50;;;12.21;100.00
51439;BME280;38816;51.142;-0.974;2023-05-02T08:19:14;101029.44;;;12.30;100.00
51439;BME280;38816;51.142;-0.974;2023-05-02T08:21:39;101037.41;;;12.40;100.00
51439;BME280;38816;51.142;-0.974;2023-05-02T08:24:05;101040.84;;;12.41;100.00
51439;BME280;38816;51.142;-0.974;2023-05-02T08:26:30;101047.94;;;12.51;100.00
51439;BME280;38816;51.142;-0.974;2023-05-02T08:28:56;101053.97;;;12.52;100.00
51439;BME280;38816;51.142;-0.974;2023-05-02T08:31:21;101053.28;;;12.60;100.00
51439;BME280;38816;51.142;-0.974;2023-05-02T08:33:47;101031.78;;;12.60;100.00
51439;BME280;38816;51.142;-0.974;2023-05-02T08:36:16;101060.31;;;12.67;100.00
51439;BME280;38816;51.142;-0.974;2023-05-02T08:38:43;101052.50;;;12.63;100.00
51439;BME280;38816;51.142;-0.974;2023-05-02T08:41:13;101047.53;;;12.72;100.00
51439;BME280;38816;51.142;-0.974;2023-05-02T08:43:39;101044.28;;;12.82;100.00
51439;BME280;38816;51.142;-0.974;2023-05-02T08:46:05;101044.72;;;13.05;100.00
51439;BME280;38816;51.142;-0.974;2023-05-02T08:48:40;101058.63;;;13.12;100.00
51439;BME280;38816;51.142;-0.974;2023-05-02T08:51:14;101069.13;;;13.20;100.00
51439;BME280;38816;51.142;-0.974;2023-05-02T08:53:40;101064.50;;;13.49;100.00
51439;BME280;38816;51.142;-0.974;2023-05-02T08:56:07;101065.69;;;13.67;100.00
51439;BME280;38816;51.142;-0.974;2023-05-02T08:58:38;101066.69;;;13.74;100.00
51439;BME280;38816;51.142;-0.974;2023-05-02T09:01:11;101066.00;;;13.86;100.00
51439;BME280;38816;51.142;-0.974;2023-05-02T09:03:37;101074.88;;;14.03;100.00
51439;BME280;38816;51.142;-0.974;2023-05-02T09:06:08;101075.09;;;14.15;100.00
51439;BME280;38816;51.142;-0.974;2023-05-02T09:08:34;101089.00;;;14.24;100.00
51439;BME280;38816;51.142;-0.974;2023-05-02T09:11:01;101095.25;;;14.39;100.00
51439;BME280;38816;51.142;-0.974;2023-05-02T09:16:10;101087.88;;;14.64;100.00
51439;BME280;38816;51.142;-0.974;2023-05-02T09:18:46;101082.81;;;14.73;100.00
51439;BME280;38816;51.142;-0.974;2023-05-02T09:21:14;101083.81;;;14.84;100.00
51439;BME280;38816;51.142;-0.974;2023-05-02T09:23:47;101086.56;;;14.98;100.00
51439;BME280;38816;51.142;-0.974;2023-05-02T09:28:50;101088.94;;;14.78;100.00
51439;BME280;38816;51.142;-0.974;2023-05-02T09:31:20;101094.13;;;14.80;100.00
51439;BME280;38816;51.142;-0.974;2023-05-02T09:33:46;101103.63;;;14.81;100.00
51439;BME280;38816;51.142;-0.974;2023-05-02T09:36:14;101091.41;;;14.69;100.00
51439;BME280;38816;51.142;-0.974;2023-05-02T09:38:44;101095.66;;;14.64;100.00
51439;BME280;38816;51.142;-0.974;2023-05-02T09:41:10;101089.44;;;14.54;100.00
51439;BME280;38816;51.142;-0.974;2023-05-02T09:43:36;101094.69;;;14.59;100.00
51439;BME280;38816;51.142;-0.974;2023-05-02T09:46:06;101098.13;;;14.55;100.00
51439;BME280;38816;51.142;-0.974;2023-05-02T09:48:56;101099.88;;;14.59;100.00
51439;BME280;38816;51.142;-0.974;2023-05-02T09:51:23;101090.38;;;14.58;100.00
51439;BME280;38816;51.142;-0.974;2023-05-02T09:53:49;101097.19;;;14.53;100.00
51439;BME280;38816;51.142;-0.974;2023-05-02T09:56:15;101096.09;;;14.38;100.00
51439;BME280;38816;51.142;-0.974;2023-05-02T09:58:41;101090.75;;;14.26;100.00
51439;BME280;38816;51.142;-0.974;2023-05-02T10:01:06;101096.69;;;14.19;100.00
51439;BME280;38816;51.142;-0.974;2023-05-02T10:03:35;101105.19;;;14.12;100.00
51439;BME280;38816;51.142;-0.974;2023-05-02T10:06:02;101109.34;;;14.01;100.00
51439;BME280;38816;51.142;-0.974;2023-05-02T10:08:32;101111.72;;;13.88;100.00
51439;BME280;38816;51.142;-0.974;2023-05-02T10:10:58;101113.38;;;13.86;100.00
51439;BME280;38816;51.142;-0.974;2023-05-02T10:13:25;101130.75;;;13.93;100.00
51439;BME280;38816;51.142;-0.974;2023-05-02T10:15:57;101122.03;;;13.87;100.00
51439;BME280;38816;51.142;-0.974;2023-05-02T10:21:07;101123.44;;;13.70;100.00
51439;BME280;38816;51.142;-0.974;2023-05-02T10:23:33;101131.53;;;13.88;100.00
51439;BME280;38816;51.142;-0.974;2023-05-02T10:25:59;101124.03;;;14.05;100.00
51439;BME280;38816;51.142;-0.974;2023-05-02T10:28:25;101145.13;;;14.29;100.00
51439;BME280;38816;51.142;-0.974;2023-05-02T10:30:52;101142.69;;;14.40;100.00
51439;BME280;38816;51.142;-0.974;2023-05-02T10:33:19;101148.19;;;14.60;100.00
51439;BME280;38816;51.142;-0.974;2023-05-02T10:35:45;101143.97;;;14.65;100.00
51439;BME280;38816;51.142;-0.974;2023-05-02T10:38:18;101144.16;;;14.79;100.00
51439;BME280;38816;51.142;-0.974;2023-05-02T10:41:14;101149.69;;;15.05;100.00
51439;BME280;38816;51.142;-0.974;2023-05-02T10:43:45;101158.59;;;15.27;100.00
51439;BME280;38816;51.142;-0.974;2023-05-02T10:51:31;101135.06;;;15.89;100.00
51439;BME280;38816;51.142;-0.974;2023-05-02T10:57:06;101134.41;;;16.13;100.00
51439;BME280;38816;51.142;-0.974;2023-05-02T10:59:42;101138.13;;;16.49;100.00
51439;BME280;38816;51.142;-0.974;2023-05-02T11:07:32;101127.69;;;16.41;100.00
51439;BME280;38816;51.142;-0.974;2023-05-02T11:12:48;101145.72;;;16.23;100.00
51439;BME280;38816;51.142;-0.974;2023-05-02T11:18:07;101139.66;;;16.24;100.00
51439;BME280;38816;51.142;-0.974;2023-05-02T11:20:39;101154.38;;;16.22;100.00
51439;BME280;38816;51.142;-0.974;2023-05-02T11:25:41;101160.69;;;16.57;100.00
51439;BME280;38816;51.142;-0.974;2023-05-02T11:31:03;101149.28;;;16.37;100.00
51439;BME280;38816;51.142;-0.974;2023-05-02T11:33:28;101154.44;;;16.34;100.00
51439;BME280;38816;51.142;-0.974;2023-05-02T11:35:54;101157.03;;;16.32;100.00
51439;BME280;38816;51.142;-0.974;2023-05-02T11:38:22;101157.06;;;16.35;100.00
51439;BME280;38816;51.142;-0.974;2023-05-02T11:40:58;101156.31;;;16.52;100.00
51439;BME280;38816;51.142;-0.974;2023-05-02T11:43:25;101165.19;;;16.80;99.53
51439;BME280;38816;51.142;-0.974;2023-05-02T11:45:52;101160.16;;;17.18;100.00
51439;BME280;38816;51.142;-0.974;2023-05-02T11:48:19;101164.56;;;17.34;94.28
51439;BME280;38816;51.142;-0.974;2023-05-02T11:50:51;101167.16;;;17.34;95.80
51439;BME280;38816;51.142;-0.974;2023-05-02T11:53:19;101163.66;;;17.32;95.85
51439;BME280;38816;51.142;-0.974;2023-05-02T11:55:57;101160.25;;;17.47;97.00
51439;BME280;38816;51.142;-0.974;2023-05-02T11:58:25;101163.72;;;17.51;93.84
51439;BME280;38816;51.142;-0.974;2023-05-02T12:00:54;101162.00;;;17.50;95.40
51439;BME280;38816;51.142;-0.974;2023-05-02T12:03:23;101163.69;;;17.35;99.61
51439;BME280;38816;51.142;-0.974;2023-05-02T12:05:49;101154.09;;;17.11;96.13
51439;BME280;38816;51.142;-0.974;2023-05-02T12:08:25;101153.31;;;17.43;92.25
51439;BME280;38816;51.142;-0.974;2023-05-02T12:10:52;101153.41;;;17.87;91.14
51439;BME280;38816;51.142;-0.974;2023-05-02T12:13:18;101151.72;;;18.20;94.21
51439;BME280;38816;51.142;-0.974;2023-05-02T12:15:44;101156.03;;;18.45;92.95
51439;BME280;38816;51.142;-0.974;2023-05-02T12:18:11;101152.56;;;18.69;92.13
51439;BME280;38816;51.142;-0.974;2023-05-02T12:20:37;101157.66;;;19.09;86.62
51439;BME280;38816;51.142;-0.974;2023-05-02T12:23:04;101146.22;;;19.33;89.41
51439;BME280;38816;51.142;-0.974;2023-05-02T12:25:41;101149.44;;;19.81;90.67
51439;BME280;38816;51.142;-0.974;2023-05-02T12:28:07;101137.97;;;20.05;85.91
51439;BME280;38816;51.142;-0.974;2023-05-02T12:30:33;101134.47;;;20.06;82.34
51439;BME280;38816;51.142;-0.974;2023-05-02T12:33:00;101141.47;;;20.01;83.40
51439;BME280;38816;51.142;-0.974;2023-05-02T12:35:27;101126.75;;;19.89;79.46
51439;BME280;38816;51.142;-0.974;2023-05-02T12:37:54;101138.91;;;19.96;83.62
51439;BME280;38816;51.142;-0.974;2023-05-02T12:40:20;101151.06;;;19.97;83.47
51439;BME280;38816;51.142;-0.974;2023-05-02T12:43:06;101153.66;;;19.99;84.58
51439;BME280;38816;51.142;-0.974;2023-05-02T12:45:35;101155.34;;;20.03;82.40
51439;BME280;38816;51.142;-0.974;2023-05-02T12:48:01;101145.00;;;19.92;83.00
51439;BME280;38816;51.142;-0.974;2023-05-02T12:50:39;101164.00;;;20.11;87.24
51439;BME280;38816;51.142;-0.974;2023-05-02T12:53:05;101150.03;;;20.18;83.65
51439;BME280;38816;51.142;-0.974;2023-05-02T12:55:31;101157.97;;;20.05;74.71
51439;BME280;38816;51.142;-0.974;2023-05-02T12:58:15;101158.75;;;20.16;85.56
51439;BME280;38816;51.142;-0.974;2023-05-02T13:00:41;101156.97;;;20.22;78.46
51439;BME280;38816;51.142;-0.974;2023-05-02T13:03:08;101157.47;;;20.63;76.74
51439;BME280;38816;51.142;-0.974;2023-05-02T13:05:34;101162.47;;;20.83;76.49
51439;BME280;38816;51.142;-0.974;2023-05-02T13:08:00;101156.38;;;20.85;77.58
51439;BME280;38816;51.142;-0.974;2023-05-02T13:10:26;101150.66;;;20.43;74.39
51439;BME280;38816;51.142;-0.974;2023-05-02T13:12:52;101165.03;;;19.92;72.35
51439;BME280;38816;51.142;-0.974;2023-05-02T13:15:21;101168.63;;;19.77;76.71
51439;BME280;38816;51.142;-0.974;2023-05-02T13:17:49;101168.63;;;19.74;79.93
51439;BME280;38816;51.142;-0.974;2023-05-02T13:20:14;101172.13;;;19.70;79.58
51439;BME280;38816;51.142;-0.974;2023-05-02T13:22:40;101164.22;;;19.82;82.27
51439;BME280;38816;51.142;-0.974;2023-05-02T13:25:06;101161.50;;;19.97;77.09
51439;BME280;38816;51.142;-0.974;2023-05-02T13:27:32;101155.28;;;20.12;73.23
51439;BME280;38816;51.142;-0.974;2023-05-02T13:29:59;101169.25;;;20.10;67.01